Weather reports worldwide

Advertisment
Bridgefoot, United Kingdom (99137): temperature & dewpoint: 12.08.2017 00:00:00 - 18.08.2017 00:00:00 (BST)Bridgefoot, United Kingdom (99137): wind speed: 12.08.2017 00:00:00 - 18.08.2017 00:00:00 (BST)Bridgefoot, United Kingdom (99137): wind direction: 12.08.2017 00:00:00 - 18.08.2017 00:00:00 (BST)Bridgefoot, United Kingdom (99137): visibility: 12.08.2017 00:00:00 - 18.08.2017 00:00:00 (BST)Bridgefoot, United Kingdom (99137): precipitation: 12.08.2017 00:00:00 - 18.08.2017 00:00:00 (BST)
Date & Time tt [°C] td [°C] ff [km/h] ff [kn] dd vv [km] rr [mm]
18.08.2017 00:00:00 - - - - - - 0,6
17.08.2017 23:00:00 15,5 13,5 - - - - 0,0
17.08.2017 22:00:00 15,5 13,7 - - - - 0,0
17.08.2017 21:00:00 15,4 13,8 - - - - 0,2
17.08.2017 20:00:00 16,0 13,6 - - - - 0,0
17.08.2017 19:00:00 16,1 13,8 - - - - 0,0
17.08.2017 18:00:00 16,6 14,1 - - - - 0,0
17.08.2017 17:00:00 16,4 13,9 - - - - 0,0
17.08.2017 16:00:00 17,1 13,1 - - - - 0,0
17.08.2017 15:00:00 17,4 12,9 - - - - 0,0
17.08.2017 14:00:00 18,5 12,3 - - - - 0,0
17.08.2017 13:00:00 19,0 13,6 - - - - 0,0
17.08.2017 12:00:00 18,2 13,1 - - - - 0,0
17.08.2017 11:00:00 17,0 12,7 - - - - 0,0
17.08.2017 10:00:00 17,0 13,0 - - - 10 0,0
17.08.2017 09:00:00 15,7 14,2 - - - - 0,2
17.08.2017 08:00:00 14,3 14,0 - - - - 0,0
17.08.2017 07:00:00 12,3 11,8 - - - - 0,0
17.08.2017 06:00:00 12,9 12,2 - - - - 0,0
17.08.2017 05:00:00 13,9 13,1 - - - - 0,0
17.08.2017 04:00:00 14,8 13,7 - - - - 0,0
17.08.2017 03:00:00 15,4 14,4 - - - - 0,0
17.08.2017 02:00:00 15,5 14,6 - - - - 0,2
17.08.2017 01:00:00 15,7 14,3 - - - - 0,0
17.08.2017 00:00:00 16,0 14,6 - - - - 0,0
16.08.2017 23:00:00 15,5 14,8 - - - - 1,6
16.08.2017 22:00:00 15,3 14,6 - - - - 1,8
16.08.2017 21:00:00 15,4 14,5 - - - - 1,8
16.08.2017 20:00:00 15,2 14,3 - - - - 1,4
16.08.2017 19:00:00 15,1 14,1 - - - - 1,0
16.08.2017 18:00:00 15,4 13,8 - - - - 0,0
16.08.2017 17:00:00 16,1 13,4 - - - - 0,0
16.08.2017 16:00:00 16,5 13,5 - - - - 0,2
16.08.2017 15:00:00 15,7 12,3 - - - - 0,0
16.08.2017 14:00:00 17,4 11,5 - - - - 0,0
16.08.2017 13:00:00 17,5 11,5 - - - - 0,0
16.08.2017 12:00:00 17,4 11,4 - - - - 0,0
16.08.2017 11:00:00 17,0 11,4 - - - - 0,0
16.08.2017 10:00:00 16,4 11,8 55 30 N 50 0,0
16.08.2017 09:00:00 14,7 11,9 - - - - 0,0
16.08.2017 08:00:00 14,3 12,1 - - - - 0,0
16.08.2017 07:00:00 14,0 12,1 - - - - 0,0
16.08.2017 06:00:00 14,0 12,5 - - - - 0,0
16.08.2017 05:00:00 14,4 13,1 - - - - 0,0
16.08.2017 04:00:00 14,2 13,2 - - - - 0,0
16.08.2017 03:00:00 13,9 12,9 - - - - 0,0
16.08.2017 02:00:00 14,0 13,4 - - - - 0,0
16.08.2017 01:00:00 12,4 11,7 - - - - 0,0
16.08.2017 00:00:00 13,6 13,0 - - - - 0,0
15.08.2017 23:00:00 12,8 11,9 - - - - 0,0
15.08.2017 22:00:00 13,4 12,1 - - - - 0,0
15.08.2017 21:00:00 14,4 12,4 - - - - 0,0
15.08.2017 20:00:00 14,9 12,0 - - - - 0,0
15.08.2017 19:00:00 16,0 12,5 - - - - 0,0
15.08.2017 18:00:00 15,4 12,2 - - - - 0,0
15.08.2017 17:00:00 16,7 12,8 - - - - 0,0
15.08.2017 16:00:00 16,4 12,6 - - - - 0,0
15.08.2017 15:00:00 16,6 12,9 - - - - 0,0
15.08.2017 14:00:00 16,1 12,3 - - - - 0,0
15.08.2017 13:00:00 16,6 13,9 - - - - 0,0
15.08.2017 12:00:00 15,3 12,8 - - - - 0,0
15.08.2017 11:00:00 15,0 13,5 - - - - 0,2
15.08.2017 10:00:00 14,1 13,0 - - - 10 1,0
15.08.2017 09:00:00 14,0 12,4 - - - - 0,0
15.08.2017 08:00:00 14,6 12,8 - - - - 0,0
15.08.2017 07:00:00 14,2 13,3 - - - - 0,0
15.08.2017 06:00:00 13,7 12,8 - - - - 0,0
15.08.2017 05:00:00 13,9 13,1 - - - - 0,0
15.08.2017 04:00:00 13,9 13,4 - - - - 0,0
15.08.2017 03:00:00 13,6 12,9 - - - - 3,0
15.08.2017 02:00:00 13,8 13,1 - - - - 4,6
15.08.2017 01:00:00 14,6 13,9 - - - - 7,6
15.08.2017 00:00:00 14,5 13,6 - - - - 3,0
14.08.2017 23:00:00 15,1 14,2 - - - - 0,8
14.08.2017 22:00:00 15,1 14,5 - - - 10 5,2
14.08.2017 21:00:00 14,8 14,2 - - - - 4,4
14.08.2017 20:00:00 15,0 14,2 - - - - 0,6
14.08.2017 19:00:00 15,3 14,0 - - - - 0,6
14.08.2017 18:00:00 16,9 13,8 - - - - 0,0
14.08.2017 17:00:00 16,9 14,3 - - - - 0,0
14.08.2017 16:00:00 16,0 14,1 - - - - 0,0
14.08.2017 15:00:00 15,5 14,4 - - - - 0,4
14.08.2017 14:00:00 16,3 14,5 - - - - 0,0
14.08.2017 13:00:00 15,1 13,8 - - - - 0,2
14.08.2017 12:00:00 15,5 12,7 - - - - 0,0
14.08.2017 11:00:00 15,1 12,5 - - - - 0,0
14.08.2017 10:00:00 14,4 12,2 68 37 N 21 0,0
14.08.2017 09:00:00 13,3 11,8 - - - - 0,2
14.08.2017 08:00:00 13,2 11,6 - - - - 0,6
14.08.2017 07:00:00 13,2 11,6 - - - - 0,6
14.08.2017 06:00:00 13,1 11,9 - - - - 1,0
14.08.2017 05:00:00 13,8 11,3 - - - - 0,2
14.08.2017 04:00:00 13,8 11,1 - - - - 0,0
14.08.2017 03:00:00 11,2 10,3 - - - - 0,0
14.08.2017 02:00:00 11,0 10,0 - - - - 0,0
14.08.2017 01:00:00 10,6 9,5 - - - - 0,0
14.08.2017 00:00:00 10,4 9,1 - - - - 0,0
13.08.2017 23:00:00 10,0 8,5 - - - - 0,0
13.08.2017 22:00:00 9,8 7,4 - - - - 0,0
13.08.2017 21:00:00 12,2 7,3 - - - - 0,0
13.08.2017 20:00:00 15,4 7,9 - - - - 0,0
13.08.2017 19:00:00 15,8 6,7 - - - - 0,0
13.08.2017 18:00:00 16,4 6,9 - - - - 0,0
13.08.2017 17:00:00 17,5 9,2 - - - - 0,0
13.08.2017 16:00:00 17,2 7,6 - - - - 0,0
13.08.2017 15:00:00 17,2 8,3 - - - - 0,0
13.08.2017 14:00:00 16,8 8,9 - - - - 0,0
13.08.2017 13:00:00 16,6 8,8 - - - - 0,0
13.08.2017 12:00:00 15,8 8,3 - - - - 0,0
13.08.2017 11:00:00 15,8 9,5 - - - - 0,0
13.08.2017 10:00:00 13,2 9,7 - - - - 0,0
13.08.2017 09:00:00 11,4 11,3 - - - - 0,0
13.08.2017 08:00:00 7,0 6,9 - - - - 0,0
13.08.2017 07:00:00 5,2 5,0 - - - - 0,0
13.08.2017 06:00:00 4,2 3,8 - - - - 0,0
13.08.2017 05:00:00 4,9 4,4 - - - - 0,0
13.08.2017 04:00:00 5,4 4,8 - - - - 0,0
13.08.2017 03:00:00 5,7 5,0 - - - - 0,0
13.08.2017 02:00:00 7,0 6,3 - - - - 0,0
13.08.2017 01:00:00 7,6 6,5 - - - - 0,0
13.08.2017 00:00:00 8,6 7,0 - - - - 0,0
12.08.2017 23:00:00 11,4 7,6 - - - - 0,0
12.08.2017 22:00:00 12,8 8,7 - - - - 0,0
12.08.2017 21:00:00 14,1 8,7 - - - - 0,0
12.08.2017 20:00:00 14,9 9,1 - - - - 0,0
12.08.2017 19:00:00 15,5 8,8 - - - - 0,0
12.08.2017 18:00:00 16,4 10,2 - - - - 0,0
12.08.2017 17:00:00 16,4 8,9 - - - - 0,0
12.08.2017 16:00:00 15,8 7,4 - - - - 0,0
12.08.2017 15:00:00 16,6 8,6 - - - - 0,0
12.08.2017 14:00:00 17,8 9,6 - - - - 0,0
12.08.2017 13:00:00 17,1 10,3 - - - - 0,0
12.08.2017 12:00:00 16,0 12,0 - - - - 0,0
12.08.2017 11:00:00 15,0 13,8 - - - - 0,2
12.08.2017 10:00:00 14,0 13,1 63 34 N 1,3 1,0
12.08.2017 09:00:00 13,9 12,9 - - - - 0,4
12.08.2017 08:00:00 13,9 12,5 - - - - 0,0
12.08.2017 07:00:00 13,7 12,2 - - - - 0,0
12.08.2017 06:00:00 13,7 11,9 - - - - 0,0
12.08.2017 05:00:00 13,6 11,8 - - - - 0,0
12.08.2017 04:00:00 13,9 11,9 - - - - 0,0
12.08.2017 03:00:00 13,2 11,4 - - - - 0,0
12.08.2017 02:00:00 14,0 12,6 - - - - 0,0
12.08.2017 01:00:00 14,3 13,0 - - - - 0,0
12.08.2017 00:00:00 14,9 13,8 - - - - 0,0

tt = temperature
td = dewpoint
ff = wind speed
dd = wind direction
vv = visibility
rr = precipitation

Next stations